Terminal Aerodrome Forecast
Issued by NWS Twin Cities, MN

Home | Current Version | Previous Version | Text Only | Print | Product List | Glossary Off
Versions: 1 2 3 4 5 6 7 8 9 10 11 12 13 14 15 16 17 18 19 20 21

000
FTUS43 KMPX 290520
TAFSTC
TAF
KSTC 290520Z 2906/3006 00000KT 3SM BR FEW050
      TEMPO 2906/2910 6SM BR
     FM291000 31004KT 6SM BR SKC
     FM291300 31007KT P6SM BKN100
     FM291900 31010G18KT P6SM VCTS SCT050CB BKN120
     FM292300 31010G18KT P6SM VCSH SCT050 BKN120
     FM300200 34006KT P6SM SKC=

USA.gov is the U.S. government's official web portal to all federal, state and local government web resources and services.